»·PEaware :: N8DL KLAS-KLAX

N8DL :: KLAS-KLAX

FLIGHT INFORMATION

Flight Status: Arrived
Operator: Privately registered:
United States
More flights under this callsign
Pilot: Dean L. (8400)
Aircraft: DASSAULT AVIATION FALCON 50
(FA50)
More flights by this aircraft type
Origin: KLAS McCarran Intl
United States
Destination: KLAX Los Angeles Intl
United States
More flights between these airports :: More routes between these airports
Route: +MCCRN5 TNP SEAVU2
File this flight plan on PilotEdge
Remarks:
Altitude:
(Current/Filed)
32,000ft
Speed:
(Current/Filed)
450kts
Departed: 18-Nov-18 03:56 PM
Arrived: 18-Nov-18 04:43 PM
Distance/Time
Traveled:
205nm/0:46
Distance/Time
To Go:
Arrived

Flight Plot

Page will automatically refresh every two minutes.

Flight plan parsing failed; only flown route is shown


Map Options




Map Legend


Flown Route
Filed Route
Departure Airport
Arrival Airport
Navaid (VOR, NDB)
Fix

Horizontal Profiles

Position Reports

Time Latitude Longitude Heading Altitude Ground
Speed
18-Nov-18 15:26 36.081202 -115.172436 263 2118ft 0kts
18-Nov-18 15:27 36.081202 -115.172436 263 2118ft 0kts
18-Nov-18 15:28 36.081202 -115.172436 263 2118ft 0kts
18-Nov-18 15:29 36.081202 -115.172436 263 2118ft 0kts
18-Nov-18 15:30 36.081202 -115.172436 263 2118ft 0kts
18-Nov-18 15:31 36.081202 -115.172436 263 2118ft 0kts
18-Nov-18 15:32 36.081202 -115.172436 263 2118ft 0kts
18-Nov-18 15:33 36.081202 -115.172436 263 2118ft 0kts
18-Nov-18 15:34 36.081202 -115.172436 263 2118ft 0kts
18-Nov-18 15:35 36.081202 -115.172436 263 2118ft 0kts
18-Nov-18 15:36 36.081202 -115.172436 263 2118ft 0kts
18-Nov-18 15:37 36.081202 -115.172436 263 2118ft 0kts
18-Nov-18 15:38 36.081202 -115.172436 263 2118ft 0kts
18-Nov-18 15:39 36.081202 -115.172436 263 2118ft 0kts
18-Nov-18 15:40 36.081202 -115.172436 263 2118ft 0kts
18-Nov-18 15:41 36.081202 -115.172436 263 2118ft 0kts
18-Nov-18 15:42 36.081202 -115.172436 263 2118ft 0kts
18-Nov-18 15:43 36.081202 -115.172436 263 2118ft 0kts
18-Nov-18 15:44 36.081202 -115.172436 263 2118ft 0kts
18-Nov-18 15:45 36.081202 -115.172436 263 2118ft 0kts
18-Nov-18 15:46 36.081202 -115.172436 263 2118ft 0kts
18-Nov-18 15:47 36.081202 -115.172436 263 2118ft 0kts
18-Nov-18 15:48 36.081202 -115.172436 263 2118ft 0kts
18-Nov-18 15:49 36.081202 -115.172436 263 2118ft 0kts
18-Nov-18 15:50 36.081202 -115.172436 263 2118ft 0kts
18-Nov-18 15:51 36.081202 -115.172436 263 2118ft 0kts
18-Nov-18 15:52 36.081203 -115.172467 276 2118ft 1kts
18-Nov-18 15:53 36.085929 -115.166670 31 2118ft 23kts
18-Nov-18 15:54 36.088722 -115.164990 25 2118ft 37kts
18-Nov-18 15:55 36.099444 -115.158801 51 2118ft 5kts
18-Nov-18 15:56 36.099466 -115.158757 63 2118ft 0kts
18-Nov-18 15:57 36.099466 -115.158755 63 2118ft 0kts
18-Nov-18 15:58 36.099467 -115.158754 63 2118ft 0kts
18-Nov-18 15:59 36.095469 -115.158519 204 2118ft 93kts
18-Nov-18 16:00 36.059865 -115.190021 230 5550ft 180kts
18-Nov-18 16:01 36.029917 -115.238267 231 9857ft 175kts
18-Nov-18 16:02 35.980734 -115.248849 177 13144ft 224kts
18-Nov-18 16:03 35.910477 -115.241931 178 16765ft 274kts
18-Nov-18 16:04 35.817440 -115.234008 178 19287ft 384kts
18-Nov-18 16:05 35.711023 -115.224954 178 24243ft 405kts
18-Nov-18 16:06 35.595340 -115.215225 179 28266ft 428kts
18-Nov-18 16:07 35.473986 -115.205037 179 31241ft 442kts
18-Nov-18 16:08 35.347293 -115.194468 178 32124ft 470kts
18-Nov-18 16:09 35.216939 -115.183562 178 32135ft 469kts
18-Nov-18 16:10 35.088832 -115.194433 202 32108ft 459kts
18-Nov-18 16:11 34.968958 -115.248131 202 32047ft 459kts
18-Nov-18 16:12 34.848729 -115.301199 201 32047ft 458kts
18-Nov-18 16:13 34.744573 -115.346962 201 32046ft 457kts
18-Nov-18 16:14 34.625235 -115.399229 201 32045ft 456kts
18-Nov-18 16:15 34.525759 -115.442671 201 32053ft 455kts
18-Nov-18 16:16 34.387089 -115.503048 201 32128ft 452kts
18-Nov-18 16:17 34.280843 -115.579747 224 32062ft 450kts
18-Nov-18 16:18 34.191273 -115.681282 223 30642ft 433kts
18-Nov-18 16:19 34.114444 -115.789060 245 28822ft 418kts
18-Nov-18 16:20 34.092929 -115.900767 259 27658ft 417kts
18-Nov-18 16:21 34.070168 -116.054553 259 26313ft 480kts
18-Nov-18 16:22 34.043017 -116.235753 259 24681ft 463kts
18-Nov-18 16:23 34.023970 -116.361682 259 23519ft 455kts
18-Nov-18 16:24 34.001758 -116.510819 262 22118ft 448kts
18-Nov-18 16:25 33.991184 -116.659669 264 20728ft 444kts
18-Nov-18 16:26 33.979502 -116.807349 264 19332ft 427kts
18-Nov-18 16:27 33.968500 -116.941349 264 17900ft 378kts
18-Nov-18 16:28 33.958497 -117.061520 264 17100ft 359kts
18-Nov-18 16:29 33.948448 -117.180723 264 16873ft 345kts
18-Nov-18 16:30 33.938645 -117.295923 264 16048ft 339kts
18-Nov-18 16:31 33.943092 -117.407915 293 14896ft 346kts
18-Nov-18 16:32 33.981603 -117.514495 293 14040ft 340kts
18-Nov-18 16:33 34.010991 -117.617044 278 14102ft 309kts
18-Nov-18 16:34 34.028493 -117.714680 264 13975ft 298kts
18-Nov-18 16:35 33.998126 -117.808435 244 12215ft 290kts
18-Nov-18 16:36 33.987799 -117.876497 263 11994ft 141kts
18-Nov-18 16:37 33.983132 -117.923174 263 10084ft 197kts
18-Nov-18 16:38 33.976149 -117.994553 263 7267ft 233kts
18-Nov-18 16:39 33.968498 -118.072323 263 4378ft 231kts
18-Nov-18 16:40 33.962051 -118.137418 263 3534ft 159kts
18-Nov-18 16:41 33.956808 -118.190169 263 2448ft 174kts
18-Nov-18 16:42 33.951455 -118.244541 263 1853ft 136kts
18-Nov-18 16:43 33.946506 -118.291555 265 1748ft 172kts
18-Nov-18 16:44 33.941260 -118.345051 262 730ft 125kts
18-Nov-18 16:45 33.937328 -118.383641 263 172ft 95kts
18-Nov-18 16:46 33.936146 -118.397977 281 129ft 39kts

Navigation Log

Ident Type
Flight plan parsing failed, navigation log unavailable